Time,TemperatureF,DewpointF,PressureIn,WindDirection,WindDirectionDegrees,WindSpeedMPH,WindSpeedGustMPH,Humidity,HourlyPrecipIn,Conditions,Clouds,dailyrainin,SoftwareType,DateUTC
2013-01-15 00:00:00,61.1,60.0,30.02,NNW,335,3.0,4.0,96,0.00,,,0.00,Wunderground v.1.15,2013-01-15 05:00:00,
2013-01-15 00:05:00,60.9,59.8,30.01,NNE,18,4.0,11.0,96,0.00,,,0.00,Wunderground v.1.15,2013-01-15 05:05:00,
2013-01-15 00:10:00,59.8,58.4,30.02,NNW,338,7.0,11.0,95,0.00,,,0.00,Wunderground v.1.15,2013-01-15 05:10:00,
2013-01-15 00:15:00,58.4,56.4,30.02,NNE,15,8.0,11.0,93,0.00,,,0.00,Wunderground v.1.15,2013-01-15 05:15:00,
2013-01-15 00:20:00,57.3,55.0,30.03,North,9,7.0,8.0,92,0.00,,,0.00,Wunderground v.1.15,2013-01-15 05:20:00,
2013-01-15 00:25:00,56.6,54.3,30.03,NE,43,7.0,10.0,92,0.00,,,0.00,Wunderground v.1.15,2013-01-15 05:25:00,
2013-01-15 00:30:00,56.0,54.0,30.03,North,355,7.0,7.0,93,0.00,,,0.00,Wunderground v.1.15,2013-01-15 05:30:00,
2013-01-15 00:35:00,55.5,53.5,30.03,NE,40,6.0,7.0,93,0.00,,,0.00,Wunderground v.1.15,2013-01-15 05:35:00,
2013-01-15 00:40:00,55.0,53.0,30.04,North,5,6.0,6.0,93,0.00,,,0.00,Wunderground v.1.15,2013-01-15 05:40:00,
2013-01-15 00:45:00,54.7,52.7,30.05,NNE,26,5.0,6.0,93,0.00,,,0.00,Wunderground v.1.15,2013-01-15 05:45:00,
2013-01-15 00:55:00,53.9,51.9,30.05,NNE,26,4.0,9.0,93,0.00,,,0.00,Wunderground v.1.15,2013-01-15 05:55:00,
2013-01-15 01:00:00,53.6,51.6,30.05,North,10,4.0,8.0,93,0.00,,,0.00,Wunderground v.1.15,2013-01-15 06:00:00,
2013-01-15 01:05:00,53.2,51.2,30.05,NNE,24,5.0,8.0,93,0.00,,,0.00,Wunderground v.1.15,2013-01-15 06:05:00,
2013-01-15 01:10:00,53.0,51.0,30.06,NE,54,4.0,4.0,93,0.00,,,0.00,Wunderground v.1.15,2013-01-15 06:10:00,
2013-01-15 01:15:00,52.8,50.8,30.06,North,9,4.0,4.0,93,0.00,,,0.00,Wunderground v.1.15,2013-01-15 06:15:00,
2013-01-15 01:20:00,52.7,50.7,30.06,NNE,24,4.0,7.0,93,0.00,,,0.00,Wunderground v.1.15,2013-01-15 06:20:00,
2013-01-15 01:30:00,52.4,50.4,30.06,NE,34,4.0,7.0,93,0.00,,,0.00,Wunderground v.1.15,2013-01-15 06:30:00,
2013-01-15 01:35:00,52.2,50.5,30.06,NE,45,5.0,7.0,94,0.00,,,0.00,Wunderground v.1.15,2013-01-15 06:35:00,
2013-01-15 01:40:00,52.1,50.4,30.07,NE,42,5.0,7.0,94,0.00,,,0.00,Wunderground v.1.15,2013-01-15 06:40:00,
2013-01-15 01:45:00,51.8,49.8,30.06,NNE,12,6.0,7.0,93,0.00,,,0.00,Wunderground v.1.15,2013-01-15 06:45:00,
2013-01-15 01:50:00,51.6,49.6,30.07,NE,44,6.0,7.0,93,0.00,,,0.00,Wunderground v.1.15,2013-01-15 06:50:00,
2013-01-15 01:55:00,51.4,49.4,30.07,NE,40,7.0,8.0,93,0.00,,,0.00,Wunderground v.1.15,2013-01-15 06:55:00,
2013-01-15 02:05:00,51.0,49.0,30.08,NE,42,5.0,7.0,93,0.00,,,0.00,Wunderground v.1.15,2013-01-15 07:05:00,
2013-01-15 02:10:00,50.9,48.9,30.07,NE,53,4.0,4.0,93,0.00,,,0.00,Wunderground v.1.15,2013-01-15 07:10:00,
2013-01-15 02:20:00,50.5,48.6,30.08,NNE,30,4.0,4.0,93,0.00,,,0.00,Wunderground v.1.15,2013-01-15 07:20:00,
2013-01-15 02:25:00,50.2,48.3,30.07,NE,39,5.0,5.0,93,0.00,,,0.00,Wunderground v.1.15,2013-01-15 07:25:00,
2013-01-15 02:30:00,50.0,48.1,30.07,NE,37,5.0,5.0,93,0.00,,,0.00,Wunderground v.1.15,2013-01-15 07:30:00,
2013-01-15 02:35:00,49.8,47.9,30.07,NE,37,4.0,5.0,93,0.00,,,0.00,Wunderground v.1.15,2013-01-15 07:35:00,
2013-01-15 02:40:00,49.7,47.8,30.07,NE,37,3.0,3.0,93,0.00,,,0.00,Wunderground v.1.15,2013-01-15 07:40:00,
2013-01-15 02:45:00,49.6,47.7,30.07,NE,49,4.0,4.0,93,0.00,,,0.00,Wunderground v.1.15,2013-01-15 07:45:00,
2013-01-15 02:50:00,49.6,47.9,30.07,ENE,78,4.0,5.0,94,0.00,,,0.00,Wunderground v.1.15,2013-01-15 07:50:00,
2013-01-15 03:00:00,49.2,47.3,30.08,NNE,21,5.0,5.0,93,0.00,,,0.00,Wunderground v.1.15,2013-01-15 08:00:00,
2013-01-15 03:05:00,49.0,46.8,30.08,ENE,58,5.0,9.0,92,0.00,,,0.00,Wunderground v.1.15,2013-01-15 08:05:00,
2013-01-15 03:10:00,48.8,46.6,30.08,NE,47,5.0,5.0,92,0.00,,,0.00,Wunderground v.1.15,2013-01-15 08:10:00,
2013-01-15 03:20:00,48.4,46.2,30.08,NE,40,4.0,13.0,92,0.00,,,0.00,Wunderground v.1.15,2013-01-15 08:20:00,
2013-01-15 03:25:00,48.1,45.9,30.08,NNE,32,5.0,13.0,92,0.00,,,0.00,Wunderground v.1.15,2013-01-15 08:25:00,
2013-01-15 03:30:00,47.9,45.7,30.08,NE,41,5.0,13.0,92,0.00,,,0.00,Wunderground v.1.15,2013-01-15 08:30:00,
2013-01-15 03:35:00,47.8,45.6,30.08,NE,35,4.0,13.0,92,0.00,,,0.00,Wunderground v.1.15,2013-01-15 08:35:00,
2013-01-15 03:40:00,47.7,45.5,30.08,NE,34,3.0,13.0,92,0.00,,,0.00,Wunderground v.1.15,2013-01-15 08:40:00,
2013-01-15 03:45:00,47.5,45.6,30.08,NNE,30,4.0,13.0,93,0.00,,,0.00,Wunderground v.1.15,2013-01-15 08:45:00,
2013-01-15 03:55:00,47.3,45.4,30.08,NE,52,3.0,13.0,93,0.00,,,0.00,Wunderground v.1.15,2013-01-15 08:55:00,
2013-01-15 04:00:00,47.2,45.3,30.07,ENE,61,3.0,3.0,93,0.00,,,0.00,Wunderground v.1.15,2013-01-15 09:00:00,
2013-01-15 04:05:00,47.1,45.5,30.06,NE,34,3.0,4.0,94,0.00,,,0.00,Wunderground v.1.15,2013-01-15 09:05:00,
2013-01-15 04:15:00,46.9,45.3,30.06,NNE,31,4.0,13.0,94,0.00,,,0.00,Wunderground v.1.15,2013-01-15 09:15:00,
2013-01-15 04:20:00,46.8,45.2,30.07,NE,49,4.0,4.0,94,0.00,,,0.00,Wunderground v.1.15,2013-01-15 09:20:00,
2013-01-15 04:25:00,46.7,45.1,30.06,ENE,69,5.0,7.0,94,0.00,,,0.00,Wunderground v.1.15,2013-01-15 09:25:00,
2013-01-15 04:30:00,46.5,44.9,30.07,NE,49,5.0,5.0,94,0.00,,,0.00,Wunderground v.1.15,2013-01-15 09:30:00,
2013-01-15 04:40:00,46.3,44.7,30.06,NE,56,3.0,13.0,94,0.00,,,0.00,Wunderground v.1.15,2013-01-15 09:40:00,
2013-01-15 04:45:00,46.1,44.2,30.07,NE,54,4.0,13.0,93,0.00,,,0.00,Wunderground v.1.15,2013-01-15 09:45:00,
2013-01-15 04:55:00,46.0,44.1,30.06,NE,34,3.0,7.0,93,0.00,,,0.00,Wunderground v.1.15,2013-01-15 09:55:00,
2013-01-15 05:00:00,45.9,44.0,30.06,ENE,67,4.0,13.0,93,0.00,,,0.00,Wunderground v.1.15,2013-01-15 10:00:00,
2013-01-15 05:05:00,45.8,44.2,30.06,East,80,4.0,13.0,94,0.00,,,0.00,Wunderground v.1.15,2013-01-15 10:05:00,
2013-01-15 05:10:00,45.8,44.2,30.06,ENE,67,3.0,3.0,94,0.00,,,0.00,Wunderground v.1.15,2013-01-15 10:10:00,
2013-01-15 05:20:00,45.7,44.1,30.06,NE,50,3.0,3.0,94,0.00,,,0.00,Wunderground v.1.15,2013-01-15 10:20:00,
2013-01-15 05:30:00,45.6,44.0,30.05,ENE,74,3.0,3.0,94,0.00,,,0.00,Wunderground v.1.15,2013-01-15 10:30:00,
2013-01-15 05:35:00,45.6,44.0,30.06,NE,44,2.0,6.0,94,0.00,,,0.00,Wunderground v.1.15,2013-01-15 10:35:00,
2013-01-15 05:40:00,45.5,43.9,30.06,ENE,65,3.0,3.0,94,0.00,,,0.00,Wunderground v.1.15,2013-01-15 10:40:00,
2013-01-15 05:45:00,45.5,44.2,30.06,East,81,3.0,3.0,95,0.00,,,0.00,Wunderground v.1.15,2013-01-15 10:45:00,
2013-01-15 05:55:00,45.4,44.1,30.06,ENE,71,3.0,4.0,95,0.00,,,0.00,Wunderground v.1.15,2013-01-15 10:55:00,
2013-01-15 06:00:00,45.3,44.0,30.05,ENE,71,4.0,8.0,95,0.00,,,0.00,Wunderground v.1.15,2013-01-15 11:00:00,
2013-01-15 06:05:00,45.2,43.9,30.05,ENE,78,5.0,8.0,95,0.00,,,0.00,Wunderground v.1.15,2013-01-15 11:05:00,
2013-01-15 06:10:00,45.1,43.8,30.05,ENE,71,5.0,5.0,95,0.00,,,0.00,Wunderground v.1.15,2013-01-15 11:10:00,
2013-01-15 06:15:00,45.1,43.8,30.05,East,80,4.0,5.0,95,0.00,,,0.00,Wunderground v.1.15,2013-01-15 11:15:00,
2013-01-15 06:25:00,45.1,43.8,30.05,ENE,75,3.0,4.0,95,0.00,,,0.00,Wunderground v.1.15,2013-01-15 11:25:00,
2013-01-15 06:30:00,44.9,43.6,30.05,NE,35,2.0,4.0,95,0.00,,,0.00,Wunderground v.1.15,2013-01-15 11:30:00,
2013-01-15 06:35:00,44.8,43.5,30.05,NNE,24,3.0,4.0,95,0.00,,,0.00,Wunderground v.1.15,2013-01-15 11:35:00,
2013-01-15 06:40:00,44.7,43.4,30.05,ENE,69,3.0,3.0,95,0.00,,,0.00,Wunderground v.1.15,2013-01-15 11:40:00,
2013-01-15 06:45:00,44.6,43.3,30.05,ENE,71,3.0,4.0,95,0.00,,,0.00,Wunderground v.1.15,2013-01-15 11:45:00,
2013-01-15 06:50:00,44.6,43.3,30.05,East,83,3.0,7.0,95,0.00,,,0.00,Wunderground v.1.15,2013-01-15 11:50:00,
2013-01-15 07:00:00,44.4,43.1,30.06,ENE,65,3.0,4.0,95,0.00,,,0.00,Wunderground v.1.15,2013-01-15 12:00:00,
2013-01-15 07:05:00,44.4,43.1,30.05,ENE,69,3.0,10.0,95,0.00,,,0.00,Wunderground v.1.15,2013-01-15 12:05:00,
2013-01-15 07:10:00,44.3,43.0,30.05,ENE,72,4.0,4.0,95,0.00,,,0.00,Wunderground v.1.15,2013-01-15 12:10:00,
2013-01-15 07:15:00,44.2,42.9,30.05,ENE,77,4.0,10.0,95,0.00,,,0.00,Wunderground v.1.15,2013-01-15 12:15:00,
2013-01-15 07:20:00,44.2,42.9,30.06,NE,34,2.0,10.0,95,0.00,,,0.00,Wunderground v.1.15,2013-01-15 12:20:00,
2013-01-15 07:30:00,44.2,42.9,30.06,NE,52,2.0,2.0,95,0.00,,,0.00,Wunderground v.1.15,2013-01-15 12:30:00,
2013-01-15 07:35:00,44.2,42.9,30.06,NE,44,2.0,10.0,95,0.00,,,0.00,Wunderground v.1.15,2013-01-15 12:35:00,
2013-01-15 07:40:00,44.2,42.9,30.07,ENE,57,2.0,10.0,95,0.00,,,0.00,Wunderground v.1.15,2013-01-15 12:40:00,
2013-01-15 07:45:00,44.2,42.9,30.07,NE,43,2.0,10.0,95,0.00,,,0.00,Wunderground v.1.15,2013-01-15 12:45:00,
2013-01-15 07:50:00,44.3,43.0,30.08,NNE,22,2.0,10.0,95,0.00,,,0.00,Wunderground v.1.15,2013-01-15 12:50:00,
2013-01-15 08:00:00,44.3,43.0,30.08,NNE,26,2.0,2.0,95,0.00,,,0.00,Wunderground v.1.15,2013-01-15 13:00:00,
2013-01-15 08:05:00,44.3,43.0,30.08,NE,55,1.0,10.0,95,0.00,,,0.00,Wunderground v.1.15,2013-01-15 13:05:00,
2013-01-15 08:10:00,44.3,43.0,30.08,ENE,61,1.0,10.0,95,0.00,,,0.00,Wunderground v.1.15,2013-01-15 13:10:00,
2013-01-15 08:15:00,44.3,43.0,30.08,NE,37,2.0,10.0,95,0.00,,,0.00,Wunderground v.1.15,2013-01-15 13:15:00,
2013-01-15 08:20:00,44.3,43.0,30.08,NE,54,2.0,2.0,95,0.00,,,0.00,Wunderground v.1.15,2013-01-15 13:20:00,
2013-01-15 08:30:00,44.3,43.0,30.09,ENE,70,2.0,2.0,95,0.00,,,0.00,Wunderground v.1.15,2013-01-15 13:30:00,
2013-01-15 08:40:00,44.4,43.1,30.10,ENE,67,2.0,2.0,95,0.00,,,0.00,Wunderground v.1.15,2013-01-15 13:40:00,
2013-01-15 08:45:00,44.4,43.1,30.10,East,86,2.0,2.0,95,0.00,,,0.00,Wunderground v.1.15,2013-01-15 13:45:00,
2013-01-15 08:50:00,44.4,43.1,30.10,ENE,67,2.0,2.0,95,0.00,,,0.00,Wunderground v.1.15,2013-01-15 13:50:00,
2013-01-15 08:55:00,44.5,43.2,30.10,NNE,24,1.0,2.0,95,0.00,,,0.00,Wunderground v.1.15,2013-01-15 13:55:00,
2013-01-15 09:00:00,44.5,43.2,30.10,ENE,64,1.0,2.0,95,0.00,,,0.00,Wunderground v.1.15,2013-01-15 14:00:00,
2013-01-15 09:10:00,44.5,43.2,30.11,NE,34,2.0,2.0,95,0.00,,,0.00,Wunderground v.1.15,2013-01-15 14:10:00,
2013-01-15 09:15:00,44.5,43.2,30.11,NNE,24,2.0,2.0,95,0.00,,,0.00,Wunderground v.1.15,2013-01-15 14:15:00,
2013-01-15 09:20:00,44.5,43.2,30.11,NNE,24,2.0,2.0,95,0.00,,,0.00,Wunderground v.1.15,2013-01-15 14:20:00,
2013-01-15 09:25:00,44.5,43.2,30.11,NE,46,2.0,3.0,95,0.00,,,0.00,Wunderground v.1.15,2013-01-15 14:25:00,
2013-01-15 09:30:00,44.5,43.2,30.11,NE,49,2.0,3.0,95,0.00,,,0.00,Wunderground v.1.15,2013-01-15 14:30:00,
2013-01-15 09:35:00,44.6,43.3,30.11,NE,43,2.0,3.0,95,0.00,,,0.00,Wunderground v.1.15,2013-01-15 14:35:00,
2013-01-15 09:45:00,44.5,43.2,30.11,NNE,24,3.0,4.0,95,0.00,,,0.00,Wunderground v.1.15,2013-01-15 14:45:00,
2013-01-15 09:50:00,44.5,43.2,30.12,NE,49,3.0,3.0,95,0.00,,,0.00,Wunderground v.1.15,2013-01-15 14:50:00,
2013-01-15 09:55:00,44.5,43.2,30.12,NNE,24,3.0,3.0,95,0.00,,,0.00,Wunderground v.1.15,2013-01-15 14:55:00,
2013-01-15 10:00:00,44.6,43.3,30.13,North,9,3.0,4.0,95,0.00,,,0.00,Wunderground v.1.15,2013-01-15 15:00:00,
2013-01-15 10:10:00,44.6,43.3,30.13,North,360,3.0,3.0,95,0.00,,,0.00,Wunderground v.1.15,2013-01-15 15:10:00,
2013-01-15 10:15:00,44.7,43.4,30.13,NNE,29,2.0,5.0,95,0.00,,,0.00,Wunderground v.1.15,2013-01-15 15:15:00,
2013-01-15 10:20:00,44.7,43.6,30.13,North,355,3.0,6.0,96,0.00,,,0.00,Wunderground v.1.15,2013-01-15 15:20:00,
2013-01-15 10:25:00,44.7,43.6,30.12,NE,48,4.0,6.0,96,0.00,,,0.00,Wunderground v.1.15,2013-01-15 15:25:00,
2013-01-15 10:30:00,44.7,43.6,30.12,NNE,26,3.0,5.0,96,0.00,,,0.00,Wunderground v.1.15,2013-01-15 15:30:00,
2013-01-15 10:35:00,44.8,43.7,30.12,NNE,31,3.0,5.0,96,0.00,,,0.00,Wunderground v.1.15,2013-01-15 15:35:00,
2013-01-15 10:45:00,45.0,43.9,30.11,NNE,21,3.0,7.0,96,0.00,,,0.00,Wunderground v.1.15,2013-01-15 15:45:00,
2013-01-15 10:50:00,45.0,43.9,30.11,NE,44,4.0,4.0,96,0.00,,,0.00,Wunderground v.1.15,2013-01-15 15:50:00,
2013-01-15 10:55:00,45.0,43.9,30.11,NE,51,3.0,5.0,96,0.00,,,0.00,Wunderground v.1.15,2013-01-15 15:55:00,
2013-01-15 11:00:00,45.0,43.9,30.11,NNE,22,3.0,3.0,96,0.00,,,0.00,Wunderground v.1.15,2013-01-15 16:00:00,
2013-01-15 11:05:00,45.0,43.9,30.11,NNE,19,3.0,5.0,96,0.00,,,0.00,Wunderground v.1.15,2013-01-15 16:05:00,
2013-01-15 11:10:00,45.0,43.9,30.11,NE,44,4.0,5.0,96,0.00,,,0.00,Wunderground v.1.15,2013-01-15 16:10:00,
2013-01-15 11:20:00,45.1,43.8,30.11,NE,49,4.0,4.0,95,0.00,,,0.00,Wunderground v.1.15,2013-01-15 16:20:00,
2013-01-15 11:25:00,45.1,43.8,30.11,East,86,4.0,4.0,95,0.00,,,0.00,Wunderground v.1.15,2013-01-15 16:25:00,
2013-01-15 11:30:00,45.3,44.2,30.11,NNE,30,4.0,4.0,96,0.00,,,0.00,Wunderground v.1.15,2013-01-15 16:30:00,
2013-01-15 11:35:00,45.4,44.1,30.11,ENE,61,3.0,4.0,95,0.00,,,0.00,Wunderground v.1.15,2013-01-15 16:35:00,
2013-01-15 11:40:00,45.4,44.1,30.10,NE,50,2.0,2.0,95,0.00,,,0.00,Wunderground v.1.15,2013-01-15 16:40:00,
2013-01-15 11:45:00,45.5,44.2,30.10,ENE,71,2.0,5.0,95,0.00,,,0.00,Wunderground v.1.15,2013-01-15 16:45:00,
2013-01-15 11:55:00,45.6,44.3,30.10,ENE,59,3.0,3.0,95,0.00,,,0.00,Wunderground v.1.15,2013-01-15 16:55:00,
2013-01-15 12:00:00,45.6,44.3,30.10,NE,49,3.0,3.0,95,0.00,,,0.00,Wunderground v.1.15,2013-01-15 17:00:00,
2013-01-15 12:05:00,45.6,44.3,30.09,NE,44,3.0,3.0,95,0.00,,,0.00,Wunderground v.1.15,2013-01-15 17:05:00,
2013-01-15 12:10:00,45.6,44.3,30.09,NE,41,3.0,3.0,95,0.00,,,0.00,Wunderground v.1.15,2013-01-15 17:10:00,
2013-01-15 12:15:00,45.6,44.3,30.09,NE,44,4.0,4.0,95,0.00,,,0.00,Wunderground v.1.15,2013-01-15 17:15:00,
2013-01-15 12:25:00,45.8,44.4,30.09,NNE,32,3.0,6.0,95,0.00,,,0.00,Wunderground v.1.15,2013-01-15 17:25:00,
2013-01-15 12:30:00,45.8,44.4,30.09,NE,43,4.0,4.0,95,0.00,,,0.00,Wunderground v.1.15,2013-01-15 17:30:00,
2013-01-15 12:35:00,45.8,44.2,30.09,NNE,26,4.0,8.0,94,0.00,,,0.00,Wunderground v.1.15,2013-01-15 17:35:00,
2013-01-15 12:40:00,45.9,44.3,30.09,East,80,4.0,7.0,94,0.00,,,0.00,Wunderground v.1.15,2013-01-15 17:40:00,
2013-01-15 12:45:00,46.0,44.4,30.08,ENE,72,3.0,7.0,94,0.00,,,0.00,Wunderground v.1.15,2013-01-15 17:45:00,
2013-01-15 12:50:00,46.1,44.7,30.08,NE,36,2.0,4.0,95,0.00,,,0.00,Wunderground v.1.15,2013-01-15 17:50:00,
2013-01-15 13:00:00,46.2,44.6,30.08,NE,42,3.0,3.0,94,0.00,,,0.00,Wunderground v.1.15,2013-01-15 18:00:00,
2013-01-15 13:05:00,46.2,44.6,30.08,NNE,28,4.0,6.0,94,0.00,,,0.00,Wunderground v.1.15,2013-01-15 18:05:00,
2013-01-15 13:10:00,46.3,44.7,30.07,NE,44,3.0,9.0,94,0.00,,,0.00,Wunderground v.1.15,2013-01-15 18:10:00,
2013-01-15 13:15:00,46.3,44.7,30.07,ENE,75,4.0,9.0,94,0.00,,,0.00,Wunderground v.1.15,2013-01-15 18:15:00,
2013-01-15 13:20:00,46.4,44.8,30.07,NE,51,3.0,3.0,94,0.00,,,0.00,Wunderground v.1.15,2013-01-15 18:20:00,
2013-01-15 13:30:00,46.5,44.9,30.06,NNE,18,3.0,9.0,94,0.00,,,0.00,Wunderground v.1.15,2013-01-15 18:30:00,
2013-01-15 13:35:00,46.6,45.0,30.06,NE,38,3.0,9.0,94,0.00,,,0.00,Wunderground v.1.15,2013-01-15 18:35:00,
2013-01-15 13:40:00,46.6,45.0,30.06,ENE,57,3.0,3.0,94,0.00,,,0.00,Wunderground v.1.15,2013-01-15 18:40:00,
2013-01-15 13:45:00,46.5,44.9,30.05,NNE,24,4.0,6.0,94,0.00,,,0.00,Wunderground v.1.15,2013-01-15 18:45:00,
2013-01-15 13:50:00,46.4,44.5,30.05,NE,34,4.0,9.0,93,0.00,,,0.00,Wunderground v.1.15,2013-01-15 18:50:00,
2013-01-15 13:55:00,46.3,44.4,30.05,NE,54,3.0,9.0,93,0.00,,,0.00,Wunderground v.1.15,2013-01-15 18:55:00,
2013-01-15 14:05:00,46.0,44.1,30.05,NE,55,3.0,9.0,93,0.00,,,0.00,Wunderground v.1.15,2013-01-15 19:05:00,
2013-01-15 14:10:00,46.0,44.4,30.06,NE,46,3.0,9.0,94,0.00,,,0.00,Wunderground v.1.15,2013-01-15 19:10:00,
2013-01-15 14:15:00,45.9,44.3,30.06,ENE,59,3.0,9.0,94,0.00,,,0.00,Wunderground v.1.15,2013-01-15 19:15:00,
2013-01-15 14:20:00,46.0,44.4,30.06,ENE,67,2.0,9.0,94,0.00,,,0.00,Wunderground v.1.15,2013-01-15 19:20:00,
2013-01-15 14:30:00,46.0,44.4,30.06,NE,39,2.0,2.0,94,0.00,,,0.00,Wunderground v.1.15,2013-01-15 19:30:00,
2013-01-15 14:40:00,45.9,44.0,30.06,NNE,32,3.0,3.0,93,0.00,,,0.00,Wunderground v.1.15,2013-01-15 19:40:00,
2013-01-15 14:45:00,45.9,44.0,30.06,East,94,4.0,6.0,93,0.00,,,0.00,Wunderground v.1.15,2013-01-15 19:45:00,
2013-01-15 14:50:00,45.9,44.0,30.06,NE,42,5.0,5.0,93,0.00,,,0.00,Wunderground v.1.15,2013-01-15 19:50:00,
2013-01-15 14:55:00,45.9,44.0,30.06,NE,51,4.0,5.0,93,0.00,,,0.00,Wunderground v.1.15,2013-01-15 19:55:00,
2013-01-15 15:00:00,45.9,44.0,30.06,ENE,70,4.0,4.0,93,0.00,,,0.00,Wunderground v.1.15,2013-01-15 20:00:00,
2013-01-15 15:10:00,45.9,44.0,30.06,ENE,78,4.0,4.0,93,0.00,,,0.00,Wunderground v.1.15,2013-01-15 20:10:00,
2013-01-15 15:15:00,46.0,44.1,30.06,NE,41,4.0,4.0,93,0.00,,,0.00,Wunderground v.1.15,2013-01-15 20:15:00,
2013-01-15 15:20:00,46.0,44.1,30.06,East,90,4.0,7.0,93,0.00,,,0.00,Wunderground v.1.15,2013-01-15 20:20:00,
2013-01-15 15:25:00,46.0,44.1,30.06,ENE,59,4.0,7.0,93,0.00,,,0.00,Wunderground v.1.15,2013-01-15 20:25:00,
2013-01-15 15:30:00,46.0,44.1,30.05,NE,50,4.0,4.0,93,0.00,,,0.00,Wunderground v.1.15,2013-01-15 20:30:00,
2013-01-15 15:35:00,46.0,44.1,30.05,East,79,4.0,8.0,93,0.00,,,0.00,Wunderground v.1.15,2013-01-15 20:35:00,
2013-01-15 15:45:00,46.0,44.1,30.06,ESE,110,4.0,4.0,93,0.00,,,0.00,Wunderground v.1.15,2013-01-15 20:45:00,
2013-01-15 15:50:00,46.0,44.1,30.06,ENE,59,3.0,3.0,93,0.00,,,0.00,Wunderground v.1.15,2013-01-15 20:50:00,
2013-01-15 15:55:00,46.0,44.1,30.05,NE,52,2.0,3.0,93,0.00,,,0.00,Wunderground v.1.15,2013-01-15 20:55:00,
2013-01-15 16:00:00,46.0,44.1,30.05,NE,42,3.0,3.0,93,0.00,,,0.00,Wunderground v.1.15,2013-01-15 21:00:00,
2013-01-15 16:05:00,46.0,44.1,30.06,NNE,32,3.0,9.0,93,0.00,,,0.00,Wunderground v.1.15,2013-01-15 21:05:00,
2013-01-15 16:15:00,45.9,44.0,30.06,NE,42,2.0,9.0,93,0.00,,,0.00,Wunderground v.1.15,2013-01-15 21:15:00,
2013-01-15 16:20:00,45.9,44.0,30.06,ENE,76,3.0,3.0,93,0.00,,,0.00,Wunderground v.1.15,2013-01-15 21:20:00,
2013-01-15 16:25:00,45.8,43.9,30.06,NE,51,3.0,9.0,93,0.00,,,0.00,Wunderground v.1.15,2013-01-15 21:25:00,
2013-01-15 16:30:00,45.7,44.1,30.06,NE,54,3.0,9.0,94,0.00,,,0.00,Wunderground v.1.15,2013-01-15 21:30:00,
2013-01-15 16:35:00,45.6,44.0,30.07,ENE,65,3.0,9.0,94,0.00,,,0.00,Wunderground v.1.15,2013-01-15 21:35:00,
2013-01-15 16:40:00,45.6,44.0,30.07,NE,34,2.0,9.0,94,0.00,,,0.00,Wunderground v.1.15,2013-01-15 21:40:00,
2013-01-15 16:50:00,45.4,43.8,30.06,NNE,31,2.0,2.0,94,0.00,,,0.00,Wunderground v.1.15,2013-01-15 21:50:00,
2013-01-15 17:00:00,45.2,43.6,30.06,NE,42,2.0,9.0,94,0.00,,,0.00,Wunderground v.1.15,2013-01-15 22:00:00,
2013-01-15 17:05:00,45.1,43.5,30.06,NE,51,3.0,9.0,94,0.00,,,0.00,Wunderground v.1.15,2013-01-15 22:05:00,
2013-01-15 17:10:00,45.0,43.4,30.06,ENE,69,3.0,9.0,94,0.00,,,0.00,Wunderground v.1.15,2013-01-15 22:10:00,
2013-01-15 17:20:00,44.9,43.3,30.07,ENE,61,1.0,9.0,94,0.00,,,0.00,Wunderground v.1.15,2013-01-15 22:20:00,
2013-01-15 17:25:00,44.9,43.6,30.07,NE,40,1.0,9.0,95,0.00,,,0.00,Wunderground v.1.15,2013-01-15 22:25:00,
2013-01-15 17:30:00,44.8,43.5,30.07,NE,44,2.0,3.0,95,0.00,,,0.00,Wunderground v.1.15,2013-01-15 22:30:00,
2013-01-15 17:35:00,44.8,43.5,30.07,NE,40,2.0,3.0,95,0.00,,,0.00,Wunderground v.1.15,2013-01-15 22:35:00,
2013-01-15 17:40:00,44.8,43.5,30.07,NNE,32,1.0,1.0,95,0.00,,,0.00,Wunderground v.1.15,2013-01-15 22:40:00,
2013-01-15 17:45:00,44.7,43.4,30.07,NE,45,2.0,2.0,95,0.00,,,0.00,Wunderground v.1.15,2013-01-15 22:45:00,
2013-01-15 17:55:00,44.6,43.3,30.06,ENE,72,2.0,2.0,95,0.00,,,0.00,Wunderground v.1.15,2013-01-15 22:55:00,
2013-01-15 18:00:00,44.6,43.3,30.06,ENE,59,1.0,1.0,95,0.00,,,0.00,Wunderground v.1.15,2013-01-15 23:00:00,
2013-01-15 18:05:00,44.5,43.2,30.06,NNE,32,2.0,4.0,95,0.00,,,0.00,Wunderground v.1.15,2013-01-15 23:05:00,
2013-01-15 18:10:00,44.5,43.2,30.06,NE,34,2.0,2.0,95,0.00,,,0.00,Wunderground v.1.15,2013-01-15 23:10:00,
2013-01-15 18:15:00,44.5,43.2,30.06,NNE,24,2.0,3.0,95,0.00,,,0.00,Wunderground v.1.15,2013-01-15 23:15:00,
2013-01-15 18:20:00,44.4,43.1,30.06,ENE,63,3.0,3.0,95,0.00,,,0.00,Wunderground v.1.15,2013-01-15 23:20:00,
2013-01-15 18:30:00,44.4,43.1,30.06,NE,42,2.0,2.0,95,0.00,,,0.00,Wunderground v.1.15,2013-01-15 23:30:00,
2013-01-15 18:35:00,44.3,43.0,30.06,ENE,71,2.0,2.0,95,0.00,,,0.00,Wunderground v.1.15,2013-01-15 23:35:00,
2013-01-15 18:40:00,44.3,43.0,30.06,ENE,77,4.0,4.0,95,0.00,,,0.00,Wunderground v.1.15,2013-01-15 23:40:00,
2013-01-15 18:45:00,44.3,43.0,30.06,East,85,4.0,4.0,95,0.00,,,0.00,Wunderground v.1.15,2013-01-15 23:45:00,
2013-01-15 18:50:00,44.3,43.0,30.06,East,87,3.0,5.0,95,0.00,,,0.00,Wunderground v.1.15,2013-01-15 23:50:00,
2013-01-15 19:00:00,44.3,43.0,30.07,ENE,69,2.0,2.0,95,0.00,,,0.00,Wunderground v.1.15,2013-01-16 00:00:00,
2013-01-15 19:05:00,44.3,43.2,30.07,ENE,63,2.0,7.0,96,0.00,,,0.00,Wunderground v.1.15,2013-01-16 00:05:00,
2013-01-15 19:15:00,44.3,43.2,30.06,NE,44,1.0,7.0,96,0.00,,,0.00,Wunderground v.1.15,2013-01-16 00:15:00,
2013-01-15 19:20:00,44.3,43.2,30.06,ENE,76,2.0,7.0,96,0.00,,,0.00,Wunderground v.1.15,2013-01-16 00:20:00,
2013-01-15 19:25:00,44.3,43.2,30.06,ENE,66,2.0,7.0,96,0.00,,,0.00,Wunderground v.1.15,2013-01-16 00:25:00,
2013-01-15 19:35:00,44.4,43.3,30.04,ENE,70,2.0,7.0,96,0.00,,,0.00,Wunderground v.1.15,2013-01-16 00:35:00,
2013-01-15 19:40:00,44.4,43.3,30.05,East,84,2.0,2.0,96,0.00,,,0.00,Wunderground v.1.15,2013-01-16 00:40:00,
2013-01-15 19:45:00,44.4,43.1,30.04,ENE,75,3.0,3.0,95,0.00,,,0.00,Wunderground v.1.15,2013-01-16 00:45:00,
2013-01-15 19:50:00,44.4,43.1,30.04,East,89,3.0,7.0,95,0.00,,,0.00,Wunderground v.1.15,2013-01-16 00:50:00,
2013-01-15 19:55:00,44.4,43.3,30.04,NNE,22,3.0,7.0,96,0.00,,,0.00,Wunderground v.1.15,2013-01-16 00:55:00,
2013-01-15 20:05:00,44.4,43.3,30.03,NE,37,1.0,7.0,96,0.00,,,0.00,Wunderground v.1.15,2013-01-16 01:05:00,
2013-01-15 20:10:00,44.4,43.3,30.03,ENE,63,1.0,7.0,96,0.00,,,0.00,Wunderground v.1.15,2013-01-16 01:10:00,
2013-01-15 20:15:00,44.5,43.4,30.03,East,80,2.0,7.0,96,0.00,,,0.00,Wunderground v.1.15,2013-01-16 01:15:00,
2013-01-15 20:20:00,44.5,43.4,30.03,East,80,2.0,7.0,96,0.00,,,0.00,Wunderground v.1.15,2013-01-16 01:20:00,
2013-01-15 20:30:00,44.6,43.5,30.02,East,80,3.0,3.0,96,0.00,,,0.00,Wunderground v.1.15,2013-01-16 01:30:00,
2013-01-15 20:40:00,44.6,43.5,30.02,NE,46,1.0,1.0,96,0.00,,,0.00,Wunderground v.1.15,2013-01-16 01:40:00,
2013-01-15 20:45:00,44.7,43.6,30.02,ENE,71,1.0,1.0,96,0.00,,,0.00,Wunderground v.1.15,2013-01-16 01:45:00,
2013-01-15 20:50:00,44.7,43.6,30.02,ENE,75,1.0,1.0,96,0.00,,,0.00,Wunderground v.1.15,2013-01-16 01:50:00,
2013-01-15 20:55:00,44.7,43.6,30.02,ENE,74,1.0,1.0,96,0.00,,,0.00,Wunderground v.1.15,2013-01-16 01:55:00,
2013-01-15 21:05:00,44.8,43.7,30.02,ENE,74,1.0,1.0,96,0.00,,,0.01,Wunderground v.1.15,2013-01-16 02:05:00,
2013-01-15 21:10:00,44.8,43.7,30.02,ENE,73,1.0,1.0,96,0.00,,,0.01,Wunderground v.1.15,2013-01-16 02:10:00,
2013-01-15 21:15:00,44.8,43.7,30.02,NE,46,1.0,1.0,96,0.00,,,0.01,Wunderground v.1.15,2013-01-16 02:15:00,
2013-01-15 21:20:00,44.9,43.8,30.02,NE,46,1.0,1.0,96,0.00,,,0.01,Wunderground v.1.15,2013-01-16 02:20:00,
2013-01-15 21:30:00,44.9,43.8,30.01,NE,55,1.0,1.0,96,0.00,,,0.01,Wunderground v.1.15,2013-01-16 02:30:00,
2013-01-15 21:35:00,45.0,43.9,30.01,NE,55,1.0,1.0,96,0.00,,,0.01,Wunderground v.1.15,2013-01-16 02:35:00,
2013-01-15 21:40:00,45.0,43.9,30.01,NE,56,0.0,1.0,96,0.00,,,0.01,Wunderground v.1.15,2013-01-16 02:40:00,
2013-01-15 21:50:00,45.0,43.9,30.00,ENE,66,1.0,2.0,96,0.00,,,0.01,Wunderground v.1.15,2013-01-16 02:50:00,
2013-01-15 21:55:00,45.1,44.0,29.99,ENE,76,2.0,3.0,96,0.00,,,0.01,Wunderground v.1.15,2013-01-16 02:55:00,
2013-01-15 22:00:00,45.1,44.0,29.99,East,101,3.0,3.0,96,0.00,,,0.01,Wunderground v.1.15,2013-01-16 03:00:00,
2013-01-15 22:05:00,45.2,44.1,29.99,East,98,3.0,6.0,96,0.00,,,0.01,Wunderground v.1.15,2013-01-16 03:05:00,
2013-01-15 22:10:00,45.2,44.1,29.98,ENE,69,2.0,6.0,96,0.00,,,0.01,Wunderground v.1.15,2013-01-16 03:10:00,
2013-01-15 22:20:00,45.2,44.1,29.98,ENE,73,2.0,6.0,96,0.00,,,0.01,Wunderground v.1.15,2013-01-16 03:20:00,
2013-01-15 22:25:00,45.2,44.1,29.98,ENE,72,1.0,6.0,96,0.00,,,0.01,Wunderground v.1.15,2013-01-16 03:25:00,
2013-01-15 22:30:00,45.3,44.2,29.98,ESE,105,1.0,6.0,96,0.00,,,0.01,Wunderground v.1.15,2013-01-16 03:30:00,
2013-01-15 22:40:00,45.4,44.3,29.98,East,84,1.0,6.0,96,0.00,,,0.01,Wunderground v.1.15,2013-01-16 03:40:00,
2013-01-15 22:45:00,45.4,44.3,29.97,ESE,103,1.0,6.0,96,0.00,,,0.01,Wunderground v.1.15,2013-01-16 03:45:00,
2013-01-15 22:50:00,45.5,44.4,29.97,East,80,1.0,6.0,96,0.00,,,0.01,Wunderground v.1.15,2013-01-16 03:50:00,
2013-01-15 22:55:00,45.5,44.4,29.97,East,80,1.0,6.0,96,0.00,,,0.01,Wunderground v.1.15,2013-01-16 03:55:00,
2013-01-15 23:05:00,45.6,44.5,29.97,East,80,0.0,6.0,96,0.00,,,0.00,Wunderground v.1.15,2013-01-16 04:05:00,
2013-01-15 23:10:00,45.6,44.5,29.97,NNE,24,0.0,6.0,96,0.00,,,0.00,Wunderground v.1.15,2013-01-16 04:10:00,
2013-01-15 23:15:00,45.7,44.6,29.98,NNW,340,1.0,6.0,96,0.00,,,0.00,Wunderground v.1.15,2013-01-16 04:15:00,
2013-01-15 23:20:00,45.7,44.6,29.98,NNW,340,0.0,6.0,96,0.00,,,0.00,Wunderground v.1.15,2013-01-16 04:20:00,
2013-01-15 23:25:00,45.8,44.7,29.97,NNW,340,0.0,6.0,96,0.00,,,0.00,Wunderground v.1.15,2013-01-16 04:25:00,
2013-01-15 23:35:00,45.8,44.7,29.96,NNW,340,0.0,6.0,96,0.00,,,0.00,Wunderground v.1.15,2013-01-16 04:35:00,
2013-01-15 23:40:00,45.8,44.7,29.96,NNE,26,0.0,6.0,96,0.00,,,0.00,Wunderground v.1.15,2013-01-16 04:40:00,
2013-01-15 23:45:00,45.9,44.8,29.96,NNE,26,0.0,6.0,96,0.00,,,0.00,Wunderground v.1.15,2013-01-16 04:45:00,
2013-01-15 23:50:00,45.9,44.8,29.96,NNE,28,1.0,6.0,96,0.00,,,0.00,Wunderground v.1.15,2013-01-16 04:50:00,